Time,TemperatureF,DewpointF,PressureIn,WindDirection,WindDirectionDegrees,WindSpeedMPH,WindSpeedGustMPH,Humidity,HourlyPrecipIn,Conditions,Clouds,dailyrainin,SoftwareType,DateUTC
2013-04-13 00:08:00,35.6,34.0,29.79,NE,54,2.0,3.0,95,0.01,,,0.50,weatherlink.com 1.10,2013-04-13 04:08:00,
2013-04-13 00:23:00,35.6,35.0,29.78,ENE,57,0.0,1.0,96,0.02,,,0.51,weatherlink.com 1.10,2013-04-13 04:23:00,
2013-04-13 00:38:00,35.5,35.0,29.78,ENE,57,0.0,1.0,96,0.02,,,0.00,weatherlink.com 1.10,2013-04-13 04:38:00,
2013-04-13 00:54:00,35.3,34.0,29.78,NNE,13,2.0,4.0,96,0.02,,,0.00,weatherlink.com 1.10,2013-04-13 04:54:00,
2013-04-13 01:09:00,35.0,34.0,29.79,NW,324,2.0,6.0,96,0.01,,,0.00,weatherlink.com 1.10,2013-04-13 05:09:00,
2013-04-13 01:24:00,34.9,34.0,29.79,NW,312,2.0,7.0,96,0.00,,,0.00,weatherlink.com 1.10,2013-04-13 05:24:00,
2013-04-13 01:39:00,35.0,34.0,29.79,WNW,293,1.0,5.0,96,0.00,,,0.00,weatherlink.com 1.10,2013-04-13 05:39:00,
2013-04-13 01:54:00,35.1,34.0,29.78,NNW,339,0.0,5.0,96,0.00,,,0.00,weatherlink.com 1.10,2013-04-13 05:54:00,
2013-04-13 02:09:00,35.1,34.0,29.80,WNW,290,2.0,6.0,96,0.00,,,0.00,weatherlink.com 1.10,2013-04-13 06:09:00,
2013-04-13 02:24:00,35.2,34.0,29.80,NW,312,3.0,7.0,96,0.00,,,0.00,weatherlink.com 1.10,2013-04-13 06:24:00,
2013-04-13 02:54:00,35.1,34.0,29.80,North,355,3.0,5.0,96,0.00,,,0.00,weatherlink.com 1.10,2013-04-13 06:54:00,
2013-04-13 03:09:00,35.5,35.0,29.80,NW,319,1.0,3.0,96,0.00,,,0.00,weatherlink.com 1.10,2013-04-13 07:09:00,
2013-04-13 03:24:00,35.7,35.0,29.79,NNW,338,2.0,5.0,96,0.01,,,0.01,weatherlink.com 1.10,2013-04-13 07:24:00,
2013-04-13 03:39:00,36.0,35.0,29.78,NNE,22,0.0,4.0,97,0.01,,,0.01,weatherlink.com 1.10,2013-04-13 07:39:00,
2013-04-13 03:54:00,36.2,35.0,29.78,NNE,22,0.0,2.0,96,0.01,,,0.01,weatherlink.com 1.10,2013-04-13 07:54:00,
2013-04-13 04:09:00,36.2,35.0,29.78,NNE,22,0.0,1.0,96,0.01,,,0.01,weatherlink.com 1.10,2013-04-13 08:09:00,
2013-04-13 04:24:00,36.1,35.0,29.78,NNE,22,0.0,0.0,96,0.00,,,0.01,weatherlink.com 1.10,2013-04-13 08:24:00,
2013-04-13 05:09:00,36.1,35.0,29.79,NE,49,1.0,3.0,96,0.00,,,0.01,weatherlink.com 1.10,2013-04-13 09:09:00,
2013-04-13 05:24:00,36.0,35.0,29.79,NNW,333,1.0,3.0,96,0.00,,,0.01,weatherlink.com 1.10,2013-04-13 09:24:00,
2013-04-13 05:39:00,35.9,35.0,29.79,NNW,331,0.0,2.0,96,0.00,,,0.01,weatherlink.com 1.10,2013-04-13 09:39:00,
2013-04-13 06:09:00,35.4,34.0,29.80,NNE,16,1.0,3.0,96,0.00,,,0.01,weatherlink.com 1.10,2013-04-13 10:09:00,
2013-04-13 06:24:00,35.7,34.0,29.80,NNE,16,1.0,1.0,95,0.00,,,0.01,weatherlink.com 1.10,2013-04-13 10:24:00,
2013-04-13 06:39:00,35.7,34.0,29.80,NW,323,2.0,4.0,95,0.00,,,0.01,weatherlink.com 1.10,2013-04-13 10:39:00,
2013-04-13 06:54:00,35.7,34.0,29.81,North,360,2.0,5.0,94,0.00,,,0.01,weatherlink.com 1.10,2013-04-13 10:54:00,
2013-04-13 07:24:00,36.0,34.0,29.81,North,5,2.0,4.0,91,0.00,,,0.01,weatherlink.com 1.10,2013-04-13 11:24:00,
2013-04-13 07:39:00,36.2,33.0,29.82,North,355,2.0,5.0,89,0.00,,,0.01,weatherlink.com 1.10,2013-04-13 11:39:00,
2013-04-13 08:09:00,36.8,34.0,29.81,North,355,2.0,4.0,88,0.00,,,0.01,weatherlink.com 1.10,2013-04-13 12:09:00,
2013-04-13 08:24:00,37.2,34.0,29.82,NNE,24,2.0,5.0,89,0.00,,,0.01,weatherlink.com 1.10,2013-04-13 12:24:00,
2013-04-13 08:39:00,37.7,34.0,29.82,North,5,0.0,6.0,86,0.00,,,0.01,weatherlink.com 1.10,2013-04-13 12:39:00,
2013-04-13 08:54:00,38.2,34.0,29.83,North,351,2.0,6.0,85,0.00,,,0.01,weatherlink.com 1.10,2013-04-13 12:54:00,
2013-04-13 09:09:00,38.7,35.0,29.82,NW,307,3.0,7.0,85,0.00,,,0.01,weatherlink.com 1.10,2013-04-13 13:09:00,
2013-04-13 09:24:00,39.6,34.0,29.83,North,5,2.0,7.0,80,0.00,,,0.01,weatherlink.com 1.10,2013-04-13 13:24:00,
2013-04-13 09:40:00,40.5,34.0,29.83,NW,322,0.0,7.0,77,0.00,,,0.01,weatherlink.com 1.10,2013-04-13 13:40:00,
2013-04-13 09:55:00,40.7,33.0,29.84,NW,304,3.0,8.0,73,0.00,,,0.01,weatherlink.com 1.10,2013-04-13 13:55:00,
2013-04-13 10:10:00,40.5,32.0,29.84,North,355,2.0,9.0,73,0.00,,,0.01,weatherlink.com 1.10,2013-04-13 14:10:00,
2013-04-13 10:25:00,41.3,33.0,29.84,West,269,3.0,9.0,73,0.00,,,0.01,weatherlink.com 1.10,2013-04-13 14:25:00,
2013-04-13 10:40:00,42.3,33.0,29.84,NW,326,6.0,8.0,69,0.00,,,0.01,weatherlink.com 1.10,2013-04-13 14:40:00,
2013-04-13 10:55:00,42.5,33.0,29.84,North,360,6.0,9.0,69,0.00,,,0.01,weatherlink.com 1.10,2013-04-13 14:55:00,
2013-04-13 11:10:00,42.7,33.0,29.84,NNW,333,3.0,12.0,68,0.00,,,0.01,weatherlink.com 1.10,2013-04-13 15:10:00,
2013-04-13 11:25:00,43.9,33.0,29.84,NE,52,2.0,9.0,65,0.00,,,0.01,weatherlink.com 1.10,2013-04-13 15:25:00,
2013-04-13 11:40:00,44.2,31.0,29.84,NNW,339,6.0,12.0,61,0.00,,,0.01,weatherlink.com 1.10,2013-04-13 15:40:00,
2013-04-13 11:55:00,44.0,33.0,29.84,WNW,303,4.0,8.0,65,0.00,,,0.01,weatherlink.com 1.10,2013-04-13 15:55:00,
2013-04-13 12:10:00,44.4,32.0,29.84,NW,321,2.0,6.0,63,0.00,,,0.01,weatherlink.com 1.10,2013-04-13 16:10:00,
2013-04-13 12:25:00,45.1,32.0,29.83,NNW,343,3.0,7.0,61,0.00,,,0.01,weatherlink.com 1.10,2013-04-13 16:25:00,
2013-04-13 12:40:00,45.3,32.0,29.83,NNW,346,2.0,8.0,59,0.00,,,0.01,weatherlink.com 1.10,2013-04-13 16:40:00,
2013-04-13 12:55:00,45.8,32.0,29.82,NW,308,4.0,5.0,60,0.00,,,0.01,weatherlink.com 1.10,2013-04-13 16:55:00,
2013-04-13 13:10:00,45.8,32.0,29.82,NW,323,1.0,8.0,60,0.00,,,0.01,weatherlink.com 1.10,2013-04-13 17:10:00,
2013-04-13 13:26:00,46.2,33.0,29.83,North,360,2.0,7.0,61,0.00,,,0.01,weatherlink.com 1.10,2013-04-13 17:26:00,
2013-04-13 13:40:00,46.5,33.0,29.82,North,351,4.0,6.0,60,0.00,,,0.01,weatherlink.com 1.10,2013-04-13 17:40:00,
2013-04-13 14:10:00,47.1,33.0,29.81,WNW,293,4.0,6.0,59,0.00,,,0.01,weatherlink.com 1.10,2013-04-13 18:10:00,
2013-04-13 14:25:00,47.5,33.0,29.81,West,277,3.0,7.0,58,0.00,,,0.01,weatherlink.com 1.10,2013-04-13 18:25:00,
2013-04-13 14:40:00,48.1,34.0,29.81,NNW,333,2.0,5.0,58,0.00,,,0.01,weatherlink.com 1.10,2013-04-13 18:40:00,
2013-04-13 14:55:00,48.9,33.0,29.81,NNW,341,3.0,10.0,55,0.00,,,0.01,weatherlink.com 1.10,2013-04-13 18:55:00,
2013-04-13 15:10:00,49.0,33.0,29.80,NNW,334,7.0,14.0,55,0.00,,,0.01,weatherlink.com 1.10,2013-04-13 19:10:00,
2013-04-13 15:25:00,48.7,33.0,29.80,WSW,250,1.0,14.0,54,0.00,,,0.01,weatherlink.com 1.10,2013-04-13 19:25:00,
2013-04-13 15:40:00,48.9,32.0,29.80,NNW,346,7.0,12.0,53,0.00,,,0.01,weatherlink.com 1.10,2013-04-13 19:40:00,
2013-04-13 15:55:00,48.7,33.0,29.81,WNW,285,6.0,11.0,54,0.00,,,0.01,weatherlink.com 1.10,2013-04-13 19:55:00,
2013-04-13 16:10:00,48.5,32.0,29.81,NW,304,4.0,12.0,54,0.00,,,0.01,weatherlink.com 1.10,2013-04-13 20:10:00,
2013-04-13 16:25:00,48.2,32.0,29.81,North,355,6.0,9.0,54,0.00,,,0.01,weatherlink.com 1.10,2013-04-13 20:25:00,
2013-04-13 16:40:00,47.9,32.0,29.82,North,350,3.0,10.0,55,0.00,,,0.01,weatherlink.com 1.10,2013-04-13 20:40:00,
2013-04-13 16:55:00,47.4,32.0,29.82,NNW,346,3.0,13.0,56,0.00,,,0.01,weatherlink.com 1.10,2013-04-13 20:55:00,
2013-04-13 17:10:00,47.3,32.0,29.82,WNW,295,8.0,10.0,55,0.00,,,0.01,weatherlink.com 1.10,2013-04-13 21:10:00,
2013-04-13 17:25:00,47.8,32.0,29.82,NNW,327,2.0,7.0,55,0.00,,,0.01,weatherlink.com 1.10,2013-04-13 21:25:00,
2013-04-13 17:40:00,47.7,32.0,29.80,NNW,332,2.0,6.0,55,0.00,,,0.01,weatherlink.com 1.10,2013-04-13 21:40:00,
2013-04-13 17:55:00,47.4,32.0,29.83,North,355,4.0,12.0,55,0.00,,,0.01,weatherlink.com 1.10,2013-04-13 21:55:00,
2013-04-13 18:10:00,47.1,32.0,29.84,West,279,6.0,13.0,56,0.00,,,0.01,weatherlink.com 1.10,2013-04-13 22:10:00,
2013-04-13 18:25:00,46.9,32.0,29.85,NW,323,2.0,9.0,57,0.00,,,0.01,weatherlink.com 1.10,2013-04-13 22:25:00,
2013-04-13 18:40:00,46.7,33.0,29.85,NNE,20,4.0,6.0,59,0.00,,,0.01,weatherlink.com 1.10,2013-04-13 22:40:00,
2013-04-13 18:55:00,46.4,33.0,29.86,NNE,24,1.0,9.0,59,0.00,,,0.01,weatherlink.com 1.10,2013-04-13 22:55:00,
2013-04-13 19:11:00,46.1,33.0,29.86,WSW,248,1.0,9.0,60,0.00,,,0.01,weatherlink.com 1.10,2013-04-13 23:11:00,
2013-04-13 19:26:00,45.9,33.0,29.87,West,281,6.0,10.0,60,0.00,,,0.01,weatherlink.com 1.10,2013-04-13 23:26:00,
2013-04-13 19:41:00,45.6,33.0,29.87,NW,315,1.0,7.0,62,0.00,,,0.01,weatherlink.com 1.10,2013-04-13 23:41:00,
2013-04-13 19:56:00,45.3,33.0,29.88,West,273,2.0,9.0,63,0.00,,,0.01,weatherlink.com 1.10,2013-04-13 23:56:00,
2013-04-13 20:41:00,44.1,33.0,29.89,North,355,1.0,5.0,66,0.00,,,0.01,weatherlink.com 1.10,2013-04-14 00:41:00,
2013-04-13 20:56:00,43.7,33.0,29.90,North,351,0.0,4.0,67,0.00,,,0.01,weatherlink.com 1.10,2013-04-14 00:56:00,
2013-04-13 21:11:00,43.5,34.0,29.90,NNW,336,0.0,2.0,68,0.00,,,0.01,weatherlink.com 1.10,2013-04-14 01:11:00,
2013-04-13 21:26:00,43.2,34.0,29.91,NNW,336,0.0,0.0,69,0.00,,,0.01,weatherlink.com 1.10,2013-04-14 01:26:00,
2013-04-13 21:41:00,42.8,34.0,29.91,NNW,336,0.0,0.0,71,0.00,,,0.01,weatherlink.com 1.10,2013-04-14 01:41:00,
2013-04-13 22:11:00,41.3,35.0,29.90,South,183,0.0,2.0,77,0.00,,,0.01,weatherlink.com 1.10,2013-04-14 02:11:00,
2013-04-13 22:26:00,41.3,33.0,29.89,West,273,1.0,3.0,72,0.00,,,0.01,weatherlink.com 1.10,2013-04-14 02:26:00,
2013-04-13 22:56:00,41.1,32.0,29.89,SSE,152,4.0,8.0,69,0.00,,,0.01,weatherlink.com 1.10,2013-04-14 02:56:00,
2013-04-13 23:41:00,43.2,30.0,29.89,North,355,0.0,10.0,61,0.00,,,0.01,weatherlink.com 1.10,2013-04-14 03:41:00,
2013-04-13 23:56:00,43.2,30.0,29.89,West,281,3.0,10.0,61,0.00,,,0.01,weatherlink.com 1.10,2013-04-14 03:56:00,